• Join FlightAware (Why Join?)
  • Login
  • US Flag 
12:01PM EDT


 

Airport Tracker/Info


-or-


 

Live Flight TrackerFlight Track Log ✈ UAL5868 ✈ 07-May-2013 ✈ KBDL - KIAD

Flight Track Log - Related Links

Times and Time Zones

All times are in EDT time to prevent confusion due to time zone crossing. See the UAL5868 flight status page for this flight to view local times or setup timezone preferences in your user account.

Time Position Orientation Groundspeed Altitude Reporting Facility
EDT Latitude Longitude Course Direction KTS MPH feet Rate Location/Type
10:41AM 41.9500 -72.7053 236° Southwest 151 174 900  Level Boston Center
10:43AM 41.9767 -72.8003 291° West 195 224 3,400 1,980 Climbing Boston Center
10:44AM 41.9639 -72.8981 260° West 224 258 5,800 2,100 Climbing Boston Center
10:45AM 41.9012 -73.2198 263° West  Level FlightAware Approximate
10:45AM 41.9531 -72.9761 259° West 240 276 7,700  Level Boston Center
10:46AM 41.8774 -73.3454 236° Southwest  Level FlightAware Approximate
10:46AM 41.9378 -73.0986 261° West 280 322 10,100  Level Boston Center
10:47AM 41.9225 -73.2075 259° West 317 365 10,700 1,080 Climbing Boston Center
10:48AM 41.8883 -73.3408 251° West 341 392 12,300 1,500 Climbing Boston Center
10:49AM 41.8436 -73.4406 239° Southwest 353 406 13,700 1,200 Climbing Boston Center
10:50AM 41.7800 -73.5786 238° Southwest 361 415 15,000 1,380 Climbing Boston Center
10:51AM 41.6914 -73.6661 216° Southwest 360 414 16,800 1,800 Climbing Boston Center
10:53AM 41.5033 -73.8208 212° Southwest 354 407 21,300 1,980 Climbing New York Center
10:54AM 41.4289 -73.8811 211° Southwest 338 389 23,700 2,220 Climbing New York Center
10:55AM 41.3589 -73.9331 209° Southwest 319 367 25,800 1,560 Climbing New York Center
10:56AM 41.2908 -73.9853 210° Southwest 297 342 26,900 900 Climbing New York Center
10:57AM 41.2142 -74.0422 209° Southwest 302 348 27,700 540 Climbing New York Center
10:58AM 41.1394 -74.1103 214° Southwest 313 360 28,000 120 Climbing New York Center
10:59AM 41.0733 -74.2364 235° Southwest 334 384 28,000  Level New York Center
11:00AM 41.0133 -74.3569 237° Southwest 381 438 28,000  Level New York Center
11:01AM 40.9531 -74.4883 239° Southwest 402 463 28,000  Level New York Center
11:02AM 40.8925 -74.6250 240° Southwest 426 490 28,000  Level New York Center
11:03AM 40.8481 -74.7706 248° West 431 496 28,000  Level New York Center
11:04AM 40.8031 -74.9242 249° West 439 505 28,000  Level New York Center
11:05AM 40.7561 -75.0747 248° West 444 511 28,000  Level New York Center
11:06AM 40.7108 -75.2253 248° West 444 511 28,000 -60 Level New York Center
11:07AM 40.6633 -75.3781 248° West 444 511 27,900  Descending New York Center
11:08AM 40.6061 -75.5083 240° Southwest 450 518 28,000 -660 Climbing New York Center
11:09AM 40.5442 -75.6514 240° Southwest 455 524 26,600 -2,160 Descending New York Center
11:10AM 40.4703 -75.7689 230° Southwest 445 512 23,800 -2,940 Descending New York Center
11:11AM 40.3922 -75.8886 229° Southwest 438 504 20,700 -1,920 Descending New York Center
11:12AM 40.3075 -76.0131 228° Southwest 432 497 20,000 -960 Descending New York Center
11:14AM 40.1500 -76.2333 227° Southwest 359 413 17,900 -1,020 Descending Potomac TRACON
11:15AM 40.1000 -76.3167 232° Southwest 321 369 17,100 -1,140 Descending Potomac TRACON
11:16AM 40.0667 -76.4167 246° West 319 367 15,800 -1,080 Descending Potomac TRACON
11:17AM 40.0167 -76.5000 232° Southwest 316 364 15,100 -480 Descending Potomac TRACON
11:18AM 39.9833 -76.6000 247° West 327 376 15,000 -60 Descending Potomac TRACON
11:19AM 39.9333 -76.7000 237° Southwest 322 371 15,000  Level Potomac TRACON
11:20AM 39.8833 -76.7833 232° Southwest 319 367 15,000  Level Potomac TRACON
11:21AM 39.8500 -76.8833 247° West 317 365 15,000 -300 Level Potomac TRACON
11:22AM 39.8000 -76.9833 237° Southwest 318 366 14,500 -780 Descending Potomac TRACON
11:23AM 39.7500 -77.0833 237° Southwest 315 362 13,500 -1,080 Descending Potomac TRACON
11:24AM 39.7000 -77.1833 237° Southwest 312 359 12,400 -1,320 Descending Potomac TRACON
11:25AM 39.6667 -77.2667 243° Southwest 312 359 11,100 -1,740 Descending Potomac TRACON
11:26AM 39.6000 -77.3333 218° Southwest 292 336 9,100 -1,800 Descending Potomac TRACON
11:27AM 39.5500 -77.4000 226° Southwest 280 322 7,500 -1,080 Descending Potomac TRACON
11:28AM 39.4833 -77.4500 210° Southwest 237 273 7,000 -300 Descending Potomac TRACON
11:29AM 39.4333 -77.4500 180° South 197 227 7,000 -360 Level Potomac TRACON
11:30AM 39.3667 -77.4500 180° South 197 227 6,300 -660 Descending Potomac TRACON
11:31AM 39.3167 -77.4500 180° South 200 230 5,700 -660 Descending Potomac TRACON
11:32AM 39.2667 -77.4500 180° South 191 220 5,000 -420 Descending Potomac TRACON
11:33AM 39.2167 -77.4500 180° South 192 221 5,000 -480 Level Potomac TRACON
11:34AM 39.1667 -77.4500 180° South 188 216 4,100 -960 Descending Potomac TRACON
11:35AM 39.1167 -77.4500 180° South 183 211 3,100 -1,020 Descending Potomac TRACON